SBVT/VIX METAR and TAF weather

Enter ICAO airport designator
Station Type Date Time Source
SBVT METAR 2021/01/22 05:00 UTC NOAA

SBVT 220500Z 32002KT 9999 SCT025 23/21 Q1016


Station Type Date Time Source
SBVT Decoded METAR 2021/01/22 05:00 UTC NOAA

Vitoria Aeroporto , Brazil (SBVT) 20-16S 040-17W 4M
Jan 22, 2021 - 12:00 AM EST / 2021.01.22 0500 UTC
Wind: from the NW (320 degrees) at 2 MPH (2 KT):0
Visibility: greater than 7 mile(s):0
Sky conditions: partly cloudy
Temperature: 73 F (23 C)
Dew Point: 69 F (21 C)
Relative Humidity: 88%
Pressure (altimeter): 30.00 in. Hg (1016 hPa)
ob: SBVT 220500Z 32002KT 9999 SCT025 23/21 Q1016
cycle: 5

Station Type Date Time Source
SBVT TAF 2021/01/22 06:03 UTC NOAA

TAF TAF SBVT 220300Z 2206/2306 32005KT 7000 SCT020 TN22/2208Z TX31/2217Z
BECMG 2208/2211 01010KT BKN020
BECMG 2212/2215 05015KT 9999 SCT030
BECMG 2216/2218 08013KT FEW030
BECMG 2222/2301 31007KT SCT020 PROB40 2302/2306 6000 SHRA BKN015
RMK PHN

Example: see airport list